createdAt,value
2022-11-16T00:02:18.995Z,949.86
2022-11-16T00:04:45.247Z,949.99
2022-11-16T00:07:11.707Z,949.89
2022-11-16T00:09:38.003Z,949.78
2022-11-16T00:12:04.376Z,949.78
2022-11-16T00:14:30.690Z,949.85
2022-11-16T00:16:57.047Z,949.78
2022-11-16T00:19:23.407Z,949.82
2022-11-16T00:21:49.764Z,949.88
2022-11-16T00:24:16.135Z,949.73
2022-11-16T00:26:42.430Z,949.74
2022-11-16T00:29:08.794Z,949.67
2022-11-16T00:31:35.135Z,949.65
2022-11-16T00:34:01.498Z,949.73
2022-11-16T00:36:27.875Z,949.66
2022-11-16T00:38:54.222Z,949.70
2022-11-16T00:41:20.563Z,949.64
2022-11-16T00:43:46.923Z,949.65
2022-11-16T00:46:13.247Z,949.64
2022-11-16T00:48:39.570Z,949.58
2022-11-16T00:51:05.925Z,949.58
2022-11-16T00:53:32.282Z,949.53
2022-11-16T00:55:58.596Z,949.55
2022-11-16T00:58:24.927Z,949.53
2022-11-16T01:00:51.416Z,949.50
2022-11-16T01:03:17.629Z,949.49
2022-11-16T01:05:44.006Z,949.47
2022-11-16T01:08:10.349Z,949.39
2022-11-16T01:10:36.696Z,949.37
2022-11-16T01:13:03.022Z,949.39
2022-11-16T01:15:29.362Z,949.34
2022-11-16T01:17:55.737Z,949.34
2022-11-16T01:20:22.046Z,949.34
2022-11-16T01:22:48.363Z,949.24
2022-11-16T01:25:14.900Z,949.26
2022-11-16T01:27:41.247Z,949.24
2022-11-16T01:30:07.587Z,949.21
2022-11-16T01:32:33.905Z,949.25
2022-11-16T01:35:00.227Z,949.23
2022-11-16T01:37:26.607Z,949.22
2022-11-16T01:39:52.956Z,949.17
2022-11-16T01:42:19.307Z,949.14
2022-11-16T01:44:45.661Z,949.26
2022-11-16T01:47:11.970Z,949.19
2022-11-16T01:49:38.328Z,949.16
2022-11-16T01:52:04.642Z,949.13
2022-11-16T01:54:31.002Z,949.19
2022-11-16T01:56:57.315Z,949.18
2022-11-16T01:59:23.739Z,949.16
2022-11-16T02:01:50.091Z,949.17
2022-11-16T02:04:16.444Z,949.12
2022-11-16T02:06:42.808Z,949.07
2022-11-16T02:09:09.122Z,948.95
2022-11-16T02:11:35.483Z,948.88
2022-11-16T02:14:01.800Z,948.88
2022-11-16T02:16:28.117Z,948.84
2022-11-16T02:18:54.429Z,948.82
2022-11-16T02:21:20.793Z,948.83
2022-11-16T02:23:47.141Z,948.88
2022-11-16T02:26:13.461Z,948.89
2022-11-16T02:28:39.778Z,948.96
2022-11-16T02:31:06.172Z,948.97
2022-11-16T02:33:32.534Z,948.80
2022-11-16T02:35:58.850Z,948.90
2022-11-16T02:38:25.210Z,948.93
2022-11-16T02:40:51.571Z,948.84
2022-11-16T02:43:17.874Z,948.77
2022-11-16T02:45:44.268Z,948.82
2022-11-16T02:48:10.583Z,948.79
2022-11-16T02:50:36.962Z,948.79
2022-11-16T02:53:03.319Z,948.77
2022-11-16T02:55:29.854Z,948.87
2022-11-16T02:57:56.207Z,948.76
2022-11-16T03:00:22.514Z,948.73
2022-11-16T03:02:48.864Z,948.72
2022-11-16T03:05:17.737Z,948.72
2022-11-16T03:07:44.050Z,948.68
2022-11-16T03:10:10.413Z,948.59
2022-11-16T03:12:36.727Z,948.60
2022-11-16T03:15:03.083Z,948.62
2022-11-16T03:17:29.399Z,948.69
2022-11-16T03:19:55.758Z,948.70
2022-11-16T03:22:22.114Z,948.64
2022-11-16T03:24:48.447Z,948.63
2022-11-16T03:27:14.798Z,948.57
2022-11-16T03:29:41.167Z,948.56
2022-11-16T03:32:07.461Z,948.55
2022-11-16T03:34:33.914Z,948.52
2022-11-16T03:37:00.301Z,948.51
2022-11-16T03:39:26.649Z,948.50
2022-11-16T03:41:52.994Z,948.48
2022-11-16T03:44:19.370Z,948.56
2022-11-16T03:46:45.773Z,948.50
2022-11-16T03:49:12.132Z,948.50
2022-11-16T03:51:38.479Z,948.56
2022-11-16T03:54:04.806Z,948.46
2022-11-16T03:56:31.168Z,948.48
2022-11-16T03:58:57.477Z,948.41
2022-11-16T04:01:23.936Z,948.35
2022-11-16T04:03:50.249Z,948.36
2022-11-16T04:06:16.602Z,948.37
2022-11-16T04:08:42.913Z,948.34
2022-11-16T04:11:09.243Z,948.35
2022-11-16T04:13:35.567Z,948.26
2022-11-16T04:16:01.884Z,948.17
2022-11-16T04:18:28.257Z,948.18
2022-11-16T04:20:54.566Z,948.25
2022-11-16T04:23:20.932Z,948.23
2022-11-16T04:25:47.328Z,948.20
2022-11-16T04:28:13.613Z,948.14
2022-11-16T04:30:39.964Z,948.13
2022-11-16T04:33:06.321Z,948.13
2022-11-16T04:35:32.654Z,948.09
2022-11-16T04:37:59.019Z,948.07
2022-11-16T04:40:25.375Z,948.05
2022-11-16T04:42:51.709Z,948.07
2022-11-16T04:45:18.066Z,948.14
2022-11-16T04:47:44.415Z,948.14
2022-11-16T04:50:10.785Z,948.11
2022-11-16T04:52:37.139Z,948.08
2022-11-16T04:55:03.487Z,948.08
2022-11-16T04:57:29.919Z,948.05
2022-11-16T04:59:56.300Z,948.06
2022-11-16T05:02:22.618Z,948.08
2022-11-16T05:04:48.934Z,948.12
2022-11-16T05:07:15.352Z,947.94
2022-11-16T05:09:41.633Z,947.94
2022-11-16T05:12:07.989Z,947.95
2022-11-16T05:14:34.301Z,947.97
2022-11-16T05:17:00.617Z,947.89
2022-11-16T05:19:26.999Z,947.85
2022-11-16T05:21:53.333Z,947.90
2022-11-16T05:24:19.693Z,947.92
2022-11-16T05:26:46.071Z,948.00
2022-11-16T05:29:13.458Z,947.95
2022-11-16T05:31:40.652Z,947.96
2022-11-16T05:34:06.196Z,947.98
2022-11-16T05:36:32.517Z,947.96
2022-11-16T05:38:58.891Z,947.95
2022-11-16T05:41:25.250Z,947.97
2022-11-16T05:43:51.605Z,947.90
2022-11-16T05:46:17.996Z,947.91
2022-11-16T05:48:44.315Z,947.92
2022-11-16T05:51:10.695Z,947.95
2022-11-16T05:53:37.060Z,947.95
2022-11-16T05:56:03.439Z,947.91
2022-11-16T05:58:29.685Z,947.93
2022-11-16T06:00:56.008Z,947.97
2022-11-16T06:03:22.480Z,947.95
2022-11-16T06:05:48.779Z,947.99
2022-11-16T06:08:15.082Z,948.02
2022-11-16T06:10:41.400Z,947.97
2022-11-16T06:13:07.720Z,947.98
2022-11-16T06:15:34.039Z,948.01
2022-11-16T06:18:00.388Z,947.98
2022-11-16T06:20:26.764Z,947.94
2022-11-16T06:22:53.074Z,947.92
2022-11-16T06:25:19.390Z,947.96
2022-11-16T06:27:45.714Z,947.92
2022-11-16T06:30:12.102Z,947.92
2022-11-16T06:32:38.449Z,947.93
2022-11-16T06:35:04.801Z,947.94
2022-11-16T06:37:31.177Z,948.05
2022-11-16T06:39:57.494Z,948.00
2022-11-16T06:42:23.864Z,947.99
2022-11-16T06:44:50.257Z,947.98
2022-11-16T06:47:16.614Z,947.95
2022-11-16T06:49:42.982Z,948.00
2022-11-16T06:52:10.402Z,947.99
2022-11-16T06:54:36.758Z,947.92
2022-11-16T06:57:03.163Z,947.93
2022-11-16T06:59:29.469Z,947.89
2022-11-16T07:01:55.863Z,947.86
2022-11-16T07:04:22.166Z,947.87
2022-11-16T07:06:48.607Z,947.85
2022-11-16T07:09:14.855Z,947.91
2022-11-16T07:11:41.176Z,947.83
2022-11-16T07:14:07.536Z,947.80
2022-11-16T07:16:33.865Z,947.93
2022-11-16T07:19:00.259Z,947.87
2022-11-16T07:21:26.613Z,947.87
2022-11-16T07:23:52.987Z,947.77
2022-11-16T07:26:19.370Z,947.85
2022-11-16T07:28:48.473Z,947.87
2022-11-16T07:31:12.075Z,947.86
2022-11-16T07:33:38.440Z,947.80
2022-11-16T07:36:04.755Z,947.75
2022-11-16T07:38:31.417Z,947.83
2022-11-16T07:40:57.394Z,947.66
2022-11-16T07:43:23.717Z,947.77
2022-11-16T07:45:50.076Z,947.72
2022-11-16T07:48:16.468Z,947.78
2022-11-16T07:50:42.804Z,947.68
2022-11-16T07:53:09.159Z,947.75
2022-11-16T07:55:35.508Z,947.65
2022-11-16T07:58:01.925Z,947.66
2022-11-16T08:00:28.327Z,947.64
2022-11-16T08:02:54.648Z,947.64
2022-11-16T08:05:21.003Z,947.69
2022-11-16T08:07:47.356Z,947.65
2022-11-16T08:10:13.896Z,947.60
2022-11-16T08:12:40.178Z,947.58
2022-11-16T08:15:06.508Z,947.54
2022-11-16T08:17:32.856Z,947.51
2022-11-16T08:19:59.233Z,947.45
2022-11-16T08:22:25.533Z,947.46
2022-11-16T08:24:51.881Z,947.34
2022-11-16T08:27:18.184Z,947.31
2022-11-16T08:29:44.547Z,947.30
2022-11-16T08:32:10.897Z,947.26
2022-11-16T08:34:37.251Z,947.20
2022-11-16T08:37:03.638Z,947.26
2022-11-16T08:39:29.991Z,947.24
2022-11-16T08:41:56.308Z,947.29
2022-11-16T08:44:22.688Z,947.28
2022-11-16T08:46:49.046Z,947.27
2022-11-16T08:49:15.402Z,947.31
2022-11-16T08:54:25.924Z,947.20
2022-11-16T08:56:52.245Z,947.20
2022-11-16T08:59:18.605Z,947.22
2022-11-16T09:01:45.005Z,947.21
2022-11-16T09:04:11.262Z,947.21
2022-11-16T09:06:37.633Z,947.23
2022-11-16T09:09:03.975Z,947.21
2022-11-16T09:11:30.324Z,947.05
2022-11-16T09:16:40.840Z,946.96
2022-11-16T09:19:07.205Z,947.00
2022-11-16T09:21:33.519Z,946.92
2022-11-16T09:23:59.871Z,946.79
2022-11-16T09:26:26.190Z,946.78
2022-11-16T09:28:52.547Z,946.73
2022-11-16T09:31:23.189Z,946.68
2022-11-16T09:33:45.217Z,946.62
2022-11-16T09:36:11.557Z,946.56
2022-11-16T09:39:03.284Z,946.58
2022-11-16T09:43:48.384Z,946.52
2022-11-16T09:46:14.721Z,946.43
2022-11-16T09:48:41.068Z,946.44
2022-11-16T09:53:51.393Z,946.30
2022-11-16T09:56:21.903Z,946.26
2022-11-16T09:58:44.042Z,946.26
2022-11-16T10:01:10.413Z,946.23
2022-11-16T10:03:36.955Z,946.13
2022-11-16T10:06:03.107Z,946.14
2022-11-16T10:08:29.433Z,946.10
2022-11-16T10:10:55.775Z,945.99
2022-11-16T10:13:22.119Z,945.94
2022-11-16T10:15:48.517Z,945.93
2022-11-16T10:18:14.854Z,945.84
2022-11-16T10:20:41.180Z,945.80
2022-11-16T10:23:07.515Z,945.76
2022-11-16T10:25:33.840Z,945.64
2022-11-16T10:28:00.182Z,945.68
2022-11-16T10:30:26.535Z,945.61
2022-11-16T10:32:52.861Z,945.60
2022-11-16T10:35:19.217Z,945.51
2022-11-16T10:37:45.628Z,945.57
2022-11-16T10:40:11.947Z,945.40
2022-11-16T10:42:38.270Z,945.43
2022-11-16T10:45:04.617Z,945.44
2022-11-16T10:47:33.733Z,945.33
2022-11-16T10:49:57.290Z,945.35
2022-11-16T10:52:23.670Z,945.39
2022-11-16T10:54:50.006Z,945.34
2022-11-16T10:57:16.347Z,945.28
2022-11-16T10:59:42.689Z,945.25
2022-11-16T11:02:09.051Z,945.20
2022-11-16T11:04:35.374Z,945.18
2022-11-16T11:07:01.760Z,945.12
2022-11-16T11:09:28.042Z,945.14
2022-11-16T11:11:54.394Z,945.10
2022-11-16T11:14:20.705Z,945.03
2022-11-16T11:16:47.059Z,944.92
2022-11-16T11:19:13.394Z,944.86
2022-11-16T11:21:39.739Z,944.79
2022-11-16T11:24:29.634Z,944.79
2022-11-16T11:26:36.578Z,944.74
2022-11-16T11:28:58.714Z,944.69
2022-11-16T11:31:25.041Z,944.67
2022-11-16T11:33:51.416Z,944.64
2022-11-16T11:36:17.760Z,944.62
2022-11-16T11:38:44.076Z,944.58
2022-11-16T11:41:10.401Z,944.53
2022-11-16T11:43:37.063Z,944.46
2022-11-16T11:46:03.056Z,944.43
2022-11-16T11:48:29.375Z,944.47
2022-11-16T11:50:55.750Z,944.48
2022-11-16T11:53:22.073Z,944.45
2022-11-16T11:55:48.422Z,944.34
2022-11-16T11:58:14.760Z,944.29
2022-11-16T12:00:41.104Z,944.13
2022-11-16T12:03:07.467Z,944.07
2022-11-16T12:05:33.787Z,944.11
2022-11-16T12:08:00.111Z,944.09
2022-11-16T12:10:26.471Z,944.13
2022-11-16T12:12:52.811Z,944.08
2022-11-16T12:15:19.143Z,944.05
2022-11-16T12:17:45.465Z,943.97
2022-11-16T12:20:11.829Z,943.95
2022-11-16T12:22:38.185Z,943.96
2022-11-16T12:25:04.517Z,943.93
2022-11-16T12:27:30.832Z,943.89
2022-11-16T12:29:57.181Z,943.95
2022-11-16T12:32:23.499Z,943.87
2022-11-16T12:34:49.836Z,943.86
2022-11-16T12:37:16.185Z,943.78
2022-11-16T12:39:42.509Z,943.76
2022-11-16T12:42:08.846Z,943.70
2022-11-16T12:44:35.167Z,943.69
2022-11-16T12:47:01.487Z,943.77
2022-11-16T12:49:27.854Z,943.75
2022-11-16T12:51:54.375Z,943.71
2022-11-16T12:54:20.701Z,943.62
2022-11-16T12:56:49.111Z,943.58
2022-11-16T12:59:13.371Z,943.58
2022-11-16T13:01:39.689Z,943.58
2022-11-16T13:04:06.014Z,943.56
2022-11-16T13:06:32.333Z,943.55
2022-11-16T13:08:58.718Z,943.52
2022-11-16T13:11:25.052Z,943.45
2022-11-16T13:13:53.691Z,943.51
2022-11-16T13:16:17.748Z,943.39
2022-11-16T13:18:44.111Z,943.42
2022-11-16T13:21:10.432Z,943.43
2022-11-16T13:23:37.029Z,943.46
2022-11-16T13:26:03.095Z,943.33
2022-11-16T13:28:33.488Z,943.37
2022-11-16T13:30:55.812Z,943.45
2022-11-16T13:33:22.133Z,943.36
2022-11-16T13:35:48.473Z,943.31
2022-11-16T13:38:14.792Z,943.29
2022-11-16T13:40:41.131Z,943.27
2022-11-16T13:43:07.480Z,943.39
2022-11-16T13:45:33.823Z,943.35
2022-11-16T13:48:00.146Z,943.32
2022-11-16T13:50:26.505Z,943.28
2022-11-16T13:53:46.111Z,943.34
2022-11-16T13:55:19.186Z,943.34
2022-11-16T13:57:45.532Z,943.36
2022-11-16T14:00:11.874Z,943.34
2022-11-16T14:02:38.212Z,943.34
2022-11-16T14:05:04.580Z,943.43
2022-11-16T14:07:30.936Z,943.37
2022-11-16T14:09:57.230Z,943.29
2022-11-16T14:12:23.565Z,943.15
2022-11-16T14:14:49.916Z,943.19
2022-11-16T14:17:16.241Z,943.15
2022-11-16T14:19:42.579Z,943.17
2022-11-16T14:22:08.921Z,943.14
2022-11-16T14:24:35.240Z,943.21
2022-11-16T14:27:01.565Z,943.19
2022-11-16T14:29:27.908Z,943.19
2022-11-16T14:31:54.235Z,943.12
2022-11-16T14:34:20.607Z,943.09
2022-11-16T14:36:46.928Z,943.10
2022-11-16T14:39:13.287Z,943.07
2022-11-16T14:41:39.654Z,943.11
2022-11-16T14:44:05.965Z,943.01
2022-11-16T14:46:32.319Z,943.07
2022-11-16T14:48:58.661Z,943.19
2022-11-16T14:51:25.018Z,943.00
2022-11-16T14:53:51.358Z,943.07
2022-11-16T14:56:17.678Z,943.08
2022-11-16T14:58:44.116Z,943.08
2022-11-16T15:01:10.445Z,943.14
2022-11-16T15:03:37.342Z,943.03
2022-11-16T15:06:03.128Z,942.98
2022-11-16T15:08:29.446Z,942.97
2022-11-16T15:10:55.776Z,942.98
2022-11-16T15:13:22.156Z,942.98
2022-11-16T15:15:48.491Z,942.95
2022-11-16T15:18:14.813Z,943.00
2022-11-16T15:20:41.161Z,942.93
2022-11-16T15:23:07.479Z,942.88
2022-11-16T15:25:33.806Z,942.90
2022-11-16T15:28:00.181Z,942.90
2022-11-16T15:30:26.525Z,942.90
2022-11-16T15:32:52.841Z,942.90
2022-11-16T15:35:19.166Z,942.80
2022-11-16T15:37:45.508Z,942.84
2022-11-16T15:40:11.880Z,942.84
2022-11-16T15:42:38.197Z,942.81
2022-11-16T15:45:04.548Z,942.85
2022-11-16T15:47:30.907Z,942.91
2022-11-16T15:49:57.252Z,942.94
2022-11-16T15:52:23.582Z,942.91
2022-11-16T15:54:49.911Z,942.95
2022-11-16T15:57:16.252Z,942.90
2022-11-16T15:59:42.590Z,942.92
2022-11-16T16:02:08.954Z,942.90
2022-11-16T16:04:35.306Z,942.89
2022-11-16T16:07:01.704Z,942.88
2022-11-16T16:09:28.009Z,942.92
2022-11-16T16:11:54.318Z,942.88
2022-11-16T16:14:20.640Z,942.90
2022-11-16T16:16:46.989Z,942.90
2022-11-16T16:19:13.330Z,942.98
2022-11-16T16:21:42.100Z,942.96
2022-11-16T16:24:08.463Z,942.97
2022-11-16T16:26:34.797Z,942.98
2022-11-16T16:29:01.118Z,942.97
2022-11-16T16:31:27.491Z,943.00
2022-11-16T16:33:53.806Z,943.01
2022-11-16T16:36:20.136Z,942.98
2022-11-16T16:38:46.478Z,942.94
2022-11-16T16:41:12.856Z,942.93
2022-11-16T16:43:39.201Z,942.96
2022-11-16T16:46:05.539Z,942.92
2022-11-16T16:48:31.863Z,942.97
2022-11-16T16:50:58.210Z,942.90
2022-11-16T16:53:24.548Z,942.90
2022-11-16T16:55:50.877Z,942.91
2022-11-16T16:58:17.219Z,942.89
2022-11-16T17:00:43.578Z,942.84
2022-11-16T17:03:09.885Z,942.85
2022-11-16T17:05:36.206Z,942.85
2022-11-16T17:08:02.613Z,942.88
2022-11-16T17:10:28.978Z,942.86
2022-11-16T17:12:55.299Z,942.80
2022-11-16T17:15:21.683Z,942.76
2022-11-16T17:17:48.018Z,942.79
2022-11-16T17:20:14.338Z,942.69
2022-11-16T17:22:40.722Z,942.72
2022-11-16T17:25:07.063Z,942.82
2022-11-16T17:27:33.401Z,942.77
2022-11-16T17:29:59.760Z,942.83
2022-11-16T17:32:26.269Z,942.73
2022-11-16T17:34:52.645Z,942.83
2022-11-16T17:37:18.989Z,942.70
2022-11-16T17:39:45.316Z,942.66
2022-11-16T17:42:11.663Z,942.68
2022-11-16T17:44:38.009Z,942.64
2022-11-16T17:47:04.340Z,942.53
2022-11-16T17:49:30.692Z,942.55
2022-11-16T17:51:57.060Z,942.57
2022-11-16T17:54:23.405Z,942.49
2022-11-16T17:56:49.723Z,942.48
2022-11-16T17:59:16.057Z,942.50
2022-11-16T18:01:42.452Z,942.52
2022-11-16T18:04:08.725Z,942.58
2022-11-16T18:06:35.080Z,942.52
2022-11-16T18:09:01.389Z,942.58
2022-11-16T18:11:28.106Z,942.58
2022-11-16T18:13:54.434Z,942.54
2022-11-16T18:16:20.768Z,942.51
2022-11-16T18:18:47.127Z,942.44
2022-11-16T18:21:19.875Z,942.36
2022-11-16T18:23:39.795Z,942.36
2022-11-16T18:26:06.136Z,942.31
2022-11-16T18:28:32.481Z,942.23
2022-11-16T18:30:58.845Z,942.22
2022-11-16T18:33:30.244Z,942.30
2022-11-16T18:35:51.505Z,942.34
2022-11-16T18:38:17.844Z,942.27
2022-11-16T18:40:44.257Z,942.12
2022-11-16T18:43:10.614Z,942.21
2022-11-16T18:45:36.930Z,942.33
2022-11-16T18:48:03.254Z,942.40
2022-11-16T18:50:29.631Z,942.36
2022-11-16T18:52:55.977Z,942.36
2022-11-16T18:55:22.292Z,942.44
2022-11-16T18:57:48.645Z,942.44
2022-11-16T19:00:14.968Z,942.40
2022-11-16T19:02:41.334Z,942.38
2022-11-16T19:05:07.671Z,942.38
2022-11-16T19:07:34.067Z,942.43
2022-11-16T19:10:00.553Z,942.37
2022-11-16T19:12:26.882Z,942.34
2022-11-16T19:14:53.243Z,942.35
2022-11-16T19:17:19.578Z,942.31
2022-11-16T19:19:45.906Z,942.25
2022-11-16T19:22:12.268Z,942.28
2022-11-16T19:24:38.593Z,942.26
2022-11-16T19:27:04.954Z,942.29
2022-11-16T19:29:31.311Z,942.29
2022-11-16T19:31:57.629Z,942.33
2022-11-16T19:34:26.706Z,942.24
2022-11-16T19:36:50.316Z,942.30
2022-11-16T19:39:16.630Z,942.29
2022-11-16T19:41:43.013Z,942.24
2022-11-16T19:44:09.336Z,942.29
2022-11-16T19:46:35.658Z,942.34
2022-11-16T19:49:01.978Z,942.33
2022-11-16T19:51:28.328Z,942.33
2022-11-16T19:53:54.665Z,942.34
2022-11-16T19:56:20.999Z,942.31
2022-11-16T19:58:47.325Z,942.35
2022-11-16T20:01:13.680Z,942.30
2022-11-16T20:03:39.963Z,942.12
2022-11-16T20:06:06.305Z,942.32
2022-11-16T20:08:32.659Z,942.12
2022-11-16T20:10:58.995Z,942.05
2022-11-16T20:13:25.332Z,942.11
2022-11-16T20:15:51.709Z,942.09
2022-11-16T20:18:18.023Z,942.05
2022-11-16T20:20:44.383Z,942.07
2022-11-16T20:23:10.708Z,942.11
2022-11-16T20:25:37.056Z,942.07
2022-11-16T20:28:03.389Z,942.12
2022-11-16T20:30:29.740Z,941.99
2022-11-16T20:32:56.165Z,941.84
2022-11-16T20:35:22.488Z,941.88
2022-11-16T20:37:48.819Z,941.78
2022-11-16T20:40:15.163Z,941.68
2022-11-16T20:42:41.510Z,941.58
2022-11-16T20:45:07.863Z,941.66
2022-11-16T20:47:34.169Z,941.70
2022-11-16T20:50:00.534Z,941.66
2022-11-16T20:52:26.867Z,941.64
2022-11-16T20:54:53.197Z,941.68
2022-11-16T20:57:19.575Z,941.71
2022-11-16T20:59:45.942Z,941.61
2022-11-16T21:02:12.295Z,941.71
2022-11-16T21:04:38.715Z,941.56
2022-11-16T21:07:05.115Z,941.56
2022-11-16T21:09:31.387Z,941.48
2022-11-16T21:11:57.804Z,941.51
2022-11-16T21:14:24.097Z,941.51
2022-11-16T21:16:50.506Z,941.57
2022-11-16T21:19:16.832Z,941.53
2022-11-16T21:21:43.154Z,941.45
2022-11-16T21:24:09.494Z,941.48
2022-11-16T21:26:35.816Z,941.50
2022-11-16T21:29:02.152Z,941.44
2022-11-16T21:31:28.490Z,941.53
2022-11-16T21:33:54.816Z,941.52
2022-11-16T21:36:21.154Z,941.48
2022-11-16T21:38:47.544Z,941.34
2022-11-16T21:41:13.892Z,941.26
2022-11-16T21:43:40.224Z,941.44
2022-11-16T21:46:06.568Z,941.30
2022-11-16T21:48:32.895Z,941.31
2022-11-16T21:50:59.282Z,941.48
2022-11-16T21:53:25.632Z,941.34
2022-11-16T21:55:51.969Z,941.25
2022-11-16T21:58:18.333Z,941.24
2022-11-16T22:00:44.723Z,941.34
2022-11-16T22:03:11.001Z,941.25
2022-11-16T22:05:37.345Z,941.04
2022-11-16T22:08:03.700Z,941.12
2022-11-16T22:10:30.042Z,941.10
2022-11-16T22:12:56.372Z,941.18
2022-11-16T22:15:22.754Z,941.26
2022-11-16T22:17:49.100Z,941.18
2022-11-16T22:20:15.463Z,941.14
2022-11-16T22:22:41.805Z,941.22
2022-11-16T22:25:08.122Z,941.05
2022-11-16T22:27:52.099Z,941.18
2022-11-16T22:30:00.805Z,941.20
2022-11-16T22:32:27.177Z,941.21
2022-11-16T22:34:53.508Z,941.11
2022-11-16T22:37:19.850Z,940.89
2022-11-16T22:39:46.171Z,940.87
2022-11-16T22:42:12.498Z,940.77
2022-11-16T22:44:38.866Z,940.84
2022-11-16T22:47:05.189Z,940.76
2022-11-16T22:49:31.543Z,940.82
2022-11-16T22:51:57.875Z,940.68
2022-11-16T22:54:28.450Z,940.70
2022-11-16T22:56:50.531Z,940.70
2022-11-16T22:59:16.883Z,940.72
2022-11-16T23:01:44.133Z,940.71
2022-11-16T23:04:10.508Z,940.64
2022-11-16T23:06:36.857Z,940.72
2022-11-16T23:09:03.217Z,940.74
2022-11-16T23:11:29.565Z,940.73
2022-11-16T23:13:55.914Z,940.75
2022-11-16T23:16:22.262Z,940.79
2022-11-16T23:18:48.603Z,940.76
2022-11-16T23:21:14.954Z,940.67
2022-11-16T23:23:41.305Z,940.66
2022-11-16T23:26:07.627Z,940.68
2022-11-16T23:28:33.971Z,940.73
2022-11-16T23:31:00.352Z,940.71
2022-11-16T23:33:26.673Z,940.57
2022-11-16T23:35:52.996Z,940.67
2022-11-16T23:38:19.341Z,940.60
2022-11-16T23:40:45.686Z,940.64
2022-11-16T23:43:12.031Z,940.52
2022-11-16T23:45:38.408Z,940.43
2022-11-16T23:48:04.738Z,940.53
2022-11-16T23:50:31.067Z,940.29
2022-11-16T23:52:57.430Z,940.35
2022-11-16T23:55:23.771Z,940.24
2022-11-16T23:57:50.111Z,940.31
